sensor_id;sensor_type;location;lat;lon;timestamp;pressure;altitude;pressure_sealevel;temperature;humidity
17209;BME280;8720;48.488;9.202;2023-02-04T00:00:16;98230.72;;;10.94;60.15
17209;BME280;8720;48.488;9.202;2023-02-04T00:02:44;98272.44;;;11.23;60.02
17209;BME280;8720;48.488;9.202;2023-02-04T00:05:12;98275.94;;;11.24;60.08
17209;BME280;8720;48.488;9.202;2023-02-04T00:07:39;98267.19;;;11.25;60.02
17209;BME280;8720;48.488;9.202;2023-02-04T00:10:08;98261.06;;;11.24;60.19
17209;BME280;8720;48.488;9.202;2023-02-04T00:12:37;98255.03;;;11.16;60.29
17209;BME280;8720;48.488;9.202;2023-02-04T00:15:05;98273.31;;;11.25;60.22
17209;BME280;8720;48.488;9.202;2023-02-04T00:17:33;98273.31;;;11.25;60.20
17209;BME280;8720;48.488;9.202;2023-02-04T00:20:00;98275.03;;;11.26;60.23
17209;BME280;8720;48.488;9.202;2023-02-04T00:22:27;98277.66;;;11.28;60.26
17209;BME280;8720;48.488;9.202;2023-02-04T00:24:54;98278.53;;;11.27;60.33
17209;BME280;8720;48.488;9.202;2023-02-04T00:27:22;98274.16;;;11.27;60.49
17209;BME280;8720;48.488;9.202;2023-02-04T00:29:50;98264.56;;;11.29;60.31
17209;BME280;8720;48.488;9.202;2023-02-04T00:32:18;98261.03;;;11.30;60.36
17209;BME280;8720;48.488;9.202;2023-02-04T00:34:46;98271.50;;;11.30;60.41
17209;BME280;8720;48.488;9.202;2023-02-04T00:37:13;98269.78;;;11.29;60.32
17209;BME280;8720;48.488;9.202;2023-02-04T00:39:40;98277.66;;;11.28;60.63
17209;BME280;8720;48.488;9.202;2023-02-04T00:42:07;98266.31;;;11.26;60.65
17209;BME280;8720;48.488;9.202;2023-02-04T00:44:35;98270.72;;;11.24;60.83
17209;BME280;8720;48.488;9.202;2023-02-04T00:47:04;98269.81;;;11.23;60.75
17209;BME280;8720;48.488;9.202;2023-02-04T00:49:33;98281.16;;;11.25;60.85
17209;BME280;8720;48.488;9.202;2023-02-04T00:52:00;98282.03;;;11.23;60.90
17209;BME280;8720;48.488;9.202;2023-02-04T00:54:28;98270.72;;;11.24;60.82
17209;BME280;8720;48.488;9.202;2023-02-04T00:56:58;98269.81;;;11.23;60.92
17209;BME280;8720;48.488;9.202;2023-02-04T00:59:26;98282.03;;;11.24;60.99
17209;BME280;8720;48.488;9.202;2023-02-04T01:01:53;98270.72;;;11.24;60.89
17209;BME280;8720;48.488;9.202;2023-02-04T01:04:22;98273.31;;;11.24;61.04
17209;BME280;8720;48.488;9.202;2023-02-04T01:06:50;98275.03;;;11.25;61.07
17209;BME280;8720;48.488;9.202;2023-02-04T01:09:17;98267.19;;;11.25;61.12
17209;BME280;8720;48.488;9.202;2023-02-04T01:11:45;98270.66;;;11.27;61.10
17209;BME280;8720;48.488;9.202;2023-02-04T01:14:13;98278.50;;;11.28;61.18
17209;BME280;8720;48.488;9.202;2023-02-04T01:16:40;98277.63;;;11.31;61.13
17209;BME280;8720;48.488;9.202;2023-02-04T01:19:08;98283.72;;;11.33;61.02
17209;BME280;8720;48.488;9.202;2023-02-04T01:21:37;98288.09;;;11.34;60.95
17209;BME280;8720;48.488;9.202;2023-02-04T01:24:04;98288.09;;;11.34;61.19
17209;BME280;8720;48.488;9.202;2023-02-04T01:26:52;98289.84;;;11.35;61.08
17209;BME280;8720;48.488;9.202;2023-02-04T01:29:19;98289.81;;;11.36;61.16
17209;BME280;8720;48.488;9.202;2023-02-04T01:31:46;98289.81;;;11.39;61.29
17209;BME280;8720;48.488;9.202;2023-02-04T01:34:13;98302.00;;;11.42;61.22
17209;BME280;8720;48.488;9.202;2023-02-04T01:36:42;98289.75;;;11.44;61.37
17209;BME280;8720;48.488;9.202;2023-02-04T01:39:09;98286.25;;;11.46;61.12
17209;BME280;8720;48.488;9.202;2023-02-04T01:41:37;98286.22;;;11.48;61.12
17209;BME280;8720;48.488;9.202;2023-02-04T01:44:04;98296.72;;;11.48;61.05
17209;BME280;8720;48.488;9.202;2023-02-04T01:46:32;98287.06;;;11.51;61.00
17209;BME280;8720;48.488;9.202;2023-02-04T01:49:02;98294.06;;;11.52;61.07
17209;BME280;8720;48.488;9.202;2023-02-04T01:51:30;98303.72;;;11.49;60.75
17209;BME280;8720;48.488;9.202;2023-02-04T01:53:59;98302.78;;;11.56;61.17
17209;BME280;8720;48.488;9.202;2023-02-04T01:56:29;98299.28;;;11.58;61.01
17209;BME280;8720;48.488;9.202;2023-02-04T01:58:57;98306.25;;;11.59;61.08
17209;BME280;8720;48.488;9.202;2023-02-04T02:01:38;98307.13;;;11.60;60.99
17209;BME280;8720;48.488;9.202;2023-02-04T02:04:08;98309.69;;;11.63;60.93
17209;BME280;8720;48.488;9.202;2023-02-04T02:06:37;98300.97;;;11.67;61.07
17209;BME280;8720;48.488;9.202;2023-02-04T02:09:07;98300.97;;;11.70;60.94
17209;BME280;8720;48.488;9.202;2023-02-04T02:11:34;98311.41;;;11.73;61.17
17209;BME280;8720;48.488;9.202;2023-02-04T02:14:03;98292.22;;;11.63;61.17
17209;BME280;8720;48.488;9.202;2023-02-04T02:16:30;98301.81;;;11.73;61.23
17209;BME280;8720;48.488;9.202;2023-02-04T02:18:57;98294.81;;;11.74;61.23
17209;BME280;8720;48.488;9.202;2023-02-04T02:21:34;98301.78;;;11.75;61.25
17209;BME280;8720;48.488;9.202;2023-02-04T02:24:25;98306.16;;;11.73;61.58
17209;BME280;8720;48.488;9.202;2023-02-04T02:26:54;98312.28;;;11.73;61.39
17209;BME280;8720;48.488;9.202;2023-02-04T02:29:24;98314.00;;;11.74;61.56
17209;BME280;8720;48.488;9.202;2023-02-04T02:31:53;98317.50;;;11.76;61.58
17209;BME280;8720;48.488;9.202;2023-02-04T02:34:26;98307.03;;;11.78;61.40
17209;BME280;8720;48.488;9.202;2023-02-04T02:36:55;98310.50;;;11.80;61.51
17209;BME280;8720;48.488;9.202;2023-02-04T02:39:25;98304.38;;;11.79;61.33
17209;BME280;8720;48.488;9.202;2023-02-04T02:41:53;98312.25;;;11.78;61.30
17209;BME280;8720;48.488;9.202;2023-02-04T02:44:21;98323.63;;;11.75;61.54
17209;BME280;8720;48.488;9.202;2023-02-04T02:46:50;98320.19;;;11.69;61.45
17209;BME280;8720;48.488;9.202;2023-02-04T02:49:18;98329.81;;;11.61;61.63
17209;BME280;8720;48.488;9.202;2023-02-04T02:51:47;98326.41;;;11.48;61.93
17209;BME280;8720;48.488;9.202;2023-02-04T02:54:22;98332.56;;;11.43;61.82
17209;BME280;8720;48.488;9.202;2023-02-04T02:56:54;98350.09;;;11.35;62.26
17209;BME280;8720;48.488;9.202;2023-02-04T02:59:24;98357.16;;;11.24;62.31
17209;BME280;8720;48.488;9.202;2023-02-04T03:01:56;98345.84;;;11.14;62.71
17209;BME280;8720;48.488;9.202;2023-02-04T03:04:29;98353.75;;;11.07;62.79
17209;BME280;8720;48.488;9.202;2023-02-04T03:06:58;98346.78;;;11.03;63.01
17209;BME280;8720;48.488;9.202;2023-02-04T03:09:27;98348.53;;;11.01;63.06
17209;BME280;8720;48.488;9.202;2023-02-04T03:11:56;98342.41;;;11.02;63.26
17209;BME280;8720;48.488;9.202;2023-02-04T03:16:54;98357.22;;;11.04;63.16
17209;BME280;8720;48.488;9.202;2023-02-04T03:19:22;98357.22;;;11.04;63.37
17209;BME280;8720;48.488;9.202;2023-02-04T03:21:50;98356.34;;;11.05;63.38
17209;BME280;8720;48.488;9.202;2023-02-04T03:24:20;98363.31;;;11.08;63.26
17209;BME280;8720;48.488;9.202;2023-02-04T03:26:48;98373.78;;;11.09;63.42
17209;BME280;8720;48.488;9.202;2023-02-04T03:29:16;98361.59;;;11.04;63.43
17209;BME280;8720;48.488;9.202;2023-02-04T03:31:44;98383.41;;;11.07;63.52
17209;BME280;8720;48.488;9.202;2023-02-04T03:34:11;98379.06;;;11.05;63.53
17209;BME280;8720;48.488;9.202;2023-02-04T03:36:39;98382.53;;;11.07;63.53
17209;BME280;8720;48.488;9.202;2023-02-04T03:39:06;98390.38;;;11.05;63.66
17209;BME280;8720;48.488;9.202;2023-02-04T03:41:33;98394.78;;;11.05;63.69
17209;BME280;8720;48.488;9.202;2023-02-04T03:44:00;98397.38;;;11.06;63.75
17209;BME280;8720;48.488;9.202;2023-02-04T03:46:29;98402.59;;;11.08;63.75
17209;BME280;8720;48.488;9.202;2023-02-04T03:48:56;98408.72;;;11.07;63.79
17209;BME280;8720;48.488;9.202;2023-02-04T03:51:24;98409.59;;;11.09;63.96
17209;BME280;8720;48.488;9.202;2023-02-04T03:53:51;98420.06;;;11.10;63.92
17209;BME280;8720;48.488;9.202;2023-02-04T03:56:18;98423.56;;;11.11;63.89
17209;BME280;8720;48.488;9.202;2023-02-04T03:58:46;98410.47;;;11.11;64.15
17209;BME280;8720;48.488;9.202;2023-02-04T04:01:13;98407.84;;;11.08;64.34
17209;BME280;8720;48.488;9.202;2023-02-04T04:03:41;98417.44;;;11.12;64.04
17209;BME280;8720;48.488;9.202;2023-02-04T04:06:09;98422.69;;;11.10;64.18
17209;BME280;8720;48.488;9.202;2023-02-04T04:08:36;98421.84;;;11.07;64.31
17209;BME280;8720;48.488;9.202;2023-02-04T04:11:04;98422.69;;;10.99;64.31
17209;BME280;8720;48.488;9.202;2023-02-04T04:13:32;98421.00;;;10.92;64.48
17209;BME280;8720;48.488;9.202;2023-02-04T04:15:59;98421.91;;;10.85;64.69
17209;BME280;8720;48.488;9.202;2023-02-04T04:18:28;98413.16;;;10.80;64.78
17209;BME280;8720;48.488;9.202;2023-02-04T04:20:57;98421.91;;;10.76;64.92
17209;BME280;8720;48.488;9.202;2023-02-04T04:23:24;98429.78;;;10.73;65.11
17209;BME280;8720;48.488;9.202;2023-02-04T04:25:52;98425.41;;;10.69;65.25
17209;BME280;8720;48.488;9.202;2023-02-04T04:28:19;98419.31;;;10.67;65.36
17209;BME280;8720;48.488;9.202;2023-02-04T04:30:46;98425.41;;;10.65;65.34
17209;BME280;8720;48.488;9.202;2023-02-04T04:33:13;98438.50;;;10.63;65.40
17209;BME280;8720;48.488;9.202;2023-02-04T04:35:41;98433.28;;;10.63;65.50
17209;BME280;8720;48.488;9.202;2023-02-04T04:38:09;98435.88;;;10.63;65.47
17209;BME280;8720;48.488;9.202;2023-02-04T04:40:37;98434.16;;;10.62;65.57
17209;BME280;8720;48.488;9.202;2023-02-04T04:43:04;98437.66;;;10.64;65.49
17209;BME280;8720;48.488;9.202;2023-02-04T04:45:34;98440.25;;;10.63;65.57
17209;BME280;8720;48.488;9.202;2023-02-04T04:48:01;98445.47;;;10.63;65.59
17209;BME280;8720;48.488;9.202;2023-02-04T04:50:29;98435.00;;;10.63;65.48
17209;BME280;8720;48.488;9.202;2023-02-04T04:52:56;98442.00;;;10.64;65.61
17209;BME280;8720;48.488;9.202;2023-02-04T04:55:25;98435.03;;;10.64;65.45
17209;BME280;8720;48.488;9.202;2023-02-04T04:57:52;98437.63;;;10.66;65.61
17209;BME280;8720;48.488;9.202;2023-02-04T05:00:20;98442.88;;;10.67;65.52
17209;BME280;8720;48.488;9.202;2023-02-04T05:02:48;98446.34;;;10.69;65.36
17209;BME280;8720;48.488;9.202;2023-02-04T05:05:15;98445.47;;;10.69;65.59
17209;BME280;8720;48.488;9.202;2023-02-04T05:07:42;98448.06;;;10.70;65.35
17209;BME280;8720;48.488;9.202;2023-02-04T05:10:10;98445.47;;;10.73;65.41
17209;BME280;8720;48.488;9.202;2023-02-04T05:12:39;98455.94;;;10.76;65.49
17209;BME280;8720;48.488;9.202;2023-02-04T05:15:07;98452.47;;;10.76;65.59
17209;BME280;8720;48.488;9.202;2023-02-04T05:17:34;98456.81;;;10.81;65.19
17209;BME280;8720;48.488;9.202;2023-02-04T05:20:02;98447.19;;;10.82;65.28
17209;BME280;8720;48.488;9.202;2023-02-04T05:22:29;98446.31;;;10.83;65.27
17209;BME280;8720;48.488;9.202;2023-02-04T05:24:56;98451.56;;;10.87;65.17
17209;BME280;8720;48.488;9.202;2023-02-04T05:27:24;98447.16;;;10.89;65.08
17209;BME280;8720;48.488;9.202;2023-02-04T05:29:52;98452.41;;;10.92;64.77
17209;BME280;8720;48.488;9.202;2023-02-04T05:32:20;98460.25;;;10.94;64.85
17209;BME280;8720;48.488;9.202;2023-02-04T05:34:47;98446.31;;;10.95;64.55
17209;BME280;8720;48.488;9.202;2023-02-04T05:37:14;98449.78;;;10.97;64.45
17209;BME280;8720;48.488;9.202;2023-02-04T05:39:43;98450.63;;;10.97;64.56
17209;BME280;8720;48.488;9.202;2023-02-04T05:42:11;98443.66;;;10.98;64.59
17209;BME280;8720;48.488;9.202;2023-02-04T05:44:38;98443.66;;;10.99;64.48
17209;BME280;8720;48.488;9.202;2023-02-04T05:47:07;98459.38;;;10.99;64.38
17209;BME280;8720;48.488;9.202;2023-02-04T05:49:34;98466.34;;;11.01;64.42
17209;BME280;8720;48.488;9.202;2023-02-04T05:52:01;98461.97;;;11.01;64.44
17209;BME280;8720;48.488;9.202;2023-02-04T05:54:29;98467.22;;;11.01;64.27
17209;BME280;8720;48.488;9.202;2023-02-04T05:56:56;98461.97;;;11.01;64.18
17209;BME280;8720;48.488;9.202;2023-02-04T05:59:24;98474.19;;;11.02;64.18
17209;BME280;8720;48.488;9.202;2023-02-04T06:01:51;98465.47;;;11.00;64.37
17209;BME280;8720;48.488;9.202;2023-02-04T06:04:20;98469.84;;;10.99;64.17
17209;BME280;8720;48.488;9.202;2023-02-04T06:06:47;98467.22;;;10.99;64.24
17209;BME280;8720;48.488;9.202;2023-02-04T06:09:14;98468.97;;;10.97;64.31
17209;BME280;8720;48.488;9.202;2023-02-04T06:11:41;98473.34;;;10.95;64.42
17209;BME280;8720;48.488;9.202;2023-02-04T06:14:09;98483.81;;;10.95;64.29
17209;BME280;8720;48.488;9.202;2023-02-04T06:16:36;98484.69;;;10.94;64.38
17209;BME280;8720;48.488;9.202;2023-02-04T06:19:04;98489.94;;;10.94;64.17
17209;BME280;8720;48.488;9.202;2023-02-04T06:21:32;98489.94;;;10.94;64.27
17209;BME280;8720;48.488;9.202;2023-02-04T06:24:00;98497.78;;;10.94;64.16
17209;BME280;8720;48.488;9.202;2023-02-04T06:26:27;98514.34;;;10.93;64.09
17209;BME280;8720;48.488;9.202;2023-02-04T06:28:54;98518.72;;;10.91;64.15
17209;BME280;8720;48.488;9.202;2023-02-04T06:31:22;98522.22;;;10.90;64.08
17209;BME280;8720;48.488;9.202;2023-02-04T06:33:49;98514.38;;;10.89;64.15
17209;BME280;8720;48.488;9.202;2023-02-04T06:36:16;98518.75;;;10.88;64.05
17209;BME280;8720;48.488;9.202;2023-02-04T06:38:45;98517.84;;;10.88;64.07
17209;BME280;8720;48.488;9.202;2023-02-04T06:41:12;98523.97;;;10.88;64.05
17209;BME280;8720;48.488;9.202;2023-02-04T06:43:39;98527.47;;;10.89;64.07
17209;BME280;8720;48.488;9.202;2023-02-04T06:46:07;98526.59;;;10.88;63.98
17209;BME280;8720;48.488;9.202;2023-02-04T06:48:34;98530.94;;;10.89;64.09
17209;BME280;8720;48.488;9.202;2023-02-04T06:51:01;98534.44;;;10.90;64.08
17209;BME280;8720;48.488;9.202;2023-02-04T06:53:28;98526.59;;;10.88;64.06
17209;BME280;8720;48.488;9.202;2023-02-04T06:55:57;98538.81;;;10.92;64.08
17209;BME280;8720;48.488;9.202;2023-02-04T06:58:24;98534.44;;;10.91;63.91
17209;BME280;8720;48.488;9.202;2023-02-04T07:00:52;98523.13;;;10.91;64.00
17209;BME280;8720;48.488;9.202;2023-02-04T07:03:19;98537.06;;;10.94;64.04
17209;BME280;8720;48.488;9.202;2023-02-04T07:05:46;98533.59;;;10.97;64.03
17209;BME280;8720;48.488;9.202;2023-02-04T07:08:14;98538.81;;;10.98;64.05
17209;BME280;8720;48.488;9.202;2023-02-04T07:10:41;98546.66;;;11.00;64.06
17209;BME280;8720;48.488;9.202;2023-02-04T07:13:10;98551.00;;;11.01;63.78
17209;BME280;8720;48.488;9.202;2023-02-04T07:15:37;98566.75;;;11.03;63.74
17209;BME280;8720;48.488;9.202;2023-02-04T07:18:05;98565.88;;;11.01;63.90
17209;BME280;8720;48.488;9.202;2023-02-04T07:20:32;98566.72;;;10.99;63.73
17209;BME280;8720;48.488;9.202;2023-02-04T07:22:59;98572.84;;;11.05;63.89
17209;BME280;8720;48.488;9.202;2023-02-04T07:25:27;98565.00;;;11.05;63.71
17209;BME280;8720;48.488;9.202;2023-02-04T07:27:54;98562.34;;;11.09;63.90
17209;BME280;8720;48.488;9.202;2023-02-04T07:30:24;98557.97;;;11.11;64.15
17209;BME280;8720;48.488;9.202;2023-02-04T07:32:51;98566.72;;;11.12;64.07
17209;BME280;8720;48.488;9.202;2023-02-04T07:35:19;98580.69;;;11.12;63.83
17209;BME280;8720;48.488;9.202;2023-02-04T07:37:46;98578.06;;;11.14;63.95
17209;BME280;8720;48.488;9.202;2023-02-04T07:40:14;98585.91;;;11.15;63.97
17209;BME280;8720;48.488;9.202;2023-02-04T07:42:41;98586.78;;;11.16;64.05
17209;BME280;8720;48.488;9.202;2023-02-04T07:45:15;98587.66;;;11.15;64.21
17209;BME280;8720;48.488;9.202;2023-02-04T07:47:43;98589.41;;;11.17;64.18
17209;BME280;8720;48.488;9.202;2023-02-04T07:50:44;98579.81;;;11.18;64.08
17209;BME280;8720;48.488;9.202;2023-02-04T07:53:15;98592.03;;;11.20;64.14
17209;BME280;8720;48.488;9.202;2023-02-04T07:55:45;98593.75;;;11.23;64.28
17209;BME280;8720;48.488;9.202;2023-02-04T07:58:12;98603.38;;;11.22;64.32
17209;BME280;8720;48.488;9.202;2023-02-04T08:00:40;98603.38;;;11.21;64.47
17209;BME280;8720;48.488;9.202;2023-02-04T08:03:08;98600.75;;;11.18;64.03
17209;BME280;8720;48.488;9.202;2023-02-04T08:05:36;98604.25;;;11.14;64.16
17209;BME280;8720;48.488;9.202;2023-02-04T08:08:03;98612.97;;;11.11;64.23
17209;BME280;8720;48.488;9.202;2023-02-04T08:10:31;98605.13;;;11.08;64.22
17209;BME280;8720;48.488;9.202;2023-02-04T08:12:58;98614.75;;;11.06;64.16
17209;BME280;8720;48.488;9.202;2023-02-04T08:15:25;98623.47;;;11.22;63.30
17209;BME280;8720;48.488;9.202;2023-02-04T08:17:53;98624.34;;;11.16;63.51
17209;BME280;8720;48.488;9.202;2023-02-04T08:20:21;98622.59;;;11.12;63.69
17209;BME280;8720;48.488;9.202;2023-02-04T08:22:49;98618.22;;;11.10;63.99
17209;BME280;8720;48.488;9.202;2023-02-04T08:25:16;98622.56;;;11.09;64.08
17209;BME280;8720;48.488;9.202;2023-02-04T08:27:44;98624.31;;;11.07;64.20
17209;BME280;8720;48.488;9.202;2023-02-04T08:30:12;98629.59;;;11.10;64.18
17209;BME280;8720;48.488;9.202;2023-02-04T08:32:40;98631.31;;;11.11;64.26
17209;BME280;8720;48.488;9.202;2023-02-04T08:35:08;98631.31;;;11.13;64.28
17209;BME280;8720;48.488;9.202;2023-02-04T08:37:36;98633.06;;;11.15;64.06
17209;BME280;8720;48.488;9.202;2023-02-04T08:40:05;98632.19;;;11.15;64.18
17209;BME280;8720;48.488;9.202;2023-02-04T08:42:32;98641.78;;;11.16;64.27
17209;BME280;8720;48.488;9.202;2023-02-04T08:45:00;98650.50;;;11.15;64.30
17209;BME280;8720;48.488;9.202;2023-02-04T08:47:28;98637.44;;;11.09;64.14
17209;BME280;8720;48.488;9.202;2023-02-04T08:49:56;98652.25;;;11.11;64.27
17209;BME280;8720;48.488;9.202;2023-02-04T08:52:23;98659.25;;;11.12;64.14
17209;BME280;8720;48.488;9.202;2023-02-04T08:54:52;98664.50;;;11.12;64.40
17209;BME280;8720;48.488;9.202;2023-02-04T08:57:19;98659.25;;;11.12;64.47
17209;BME280;8720;48.488;9.202;2023-02-04T08:59:46;98649.66;;;11.08;64.20
17209;BME280;8720;48.488;9.202;2023-02-04T09:02:14;98664.50;;;11.18;64.36
17209;BME280;8720;48.488;9.202;2023-02-04T09:04:41;98663.63;;;11.22;64.42
17209;BME280;8720;48.488;9.202;2023-02-04T09:07:08;98666.25;;;11.24;64.25
17209;BME280;8720;48.488;9.202;2023-02-04T09:09:36;98674.09;;;11.25;64.05
17209;BME280;8720;48.488;9.202;2023-02-04T09:12:04;98678.47;;;11.25;64.25
17209;BME280;8720;48.488;9.202;2023-02-04T09:14:32;98674.09;;;11.24;64.26
17209;BME280;8720;48.488;9.202;2023-02-04T09:16:59;98679.34;;;11.24;64.02
17209;BME280;8720;48.488;9.202;2023-02-04T09:19:26;98678.47;;;11.25;64.30
17209;BME280;8720;48.488;9.202;2023-02-04T09:21:54;98684.56;;;11.28;64.21
17209;BME280;8720;48.488;9.202;2023-02-04T09:24:21;98683.69;;;11.31;64.25
17209;BME280;8720;48.488;9.202;2023-02-04T09:26:49;98676.72;;;11.31;64.03
17209;BME280;8720;48.488;9.202;2023-02-04T09:29:18;98684.59;;;11.31;64.03
17209;BME280;8720;48.488;9.202;2023-02-04T09:31:45;98688.09;;;11.32;64.00
17209;BME280;8720;48.488;9.202;2023-02-04T09:34:13;98681.09;;;11.29;63.80
17209;BME280;8720;48.488;9.202;2023-02-04T09:36:41;98683.72;;;11.29;63.81
17209;BME280;8720;48.488;9.202;2023-02-04T09:39:08;98677.59;;;11.23;64.19
17209;BME280;8720;48.488;9.202;2023-02-04T09:41:38;98697.69;;;11.31;64.08
17209;BME280;8720;48.488;9.202;2023-02-04T09:44:13;98702.91;;;11.31;64.04
17209;BME280;8720;48.488;9.202;2023-02-04T09:46:49;98710.78;;;11.37;63.98
17209;BME280;8720;48.488;9.202;2023-02-04T09:49:17;98714.28;;;11.41;64.08
17209;BME280;8720;48.488;9.202;2023-02-04T09:51:46;98709.00;;;11.44;64.22
17209;BME280;8720;48.488;9.202;2023-02-04T09:54:19;98718.66;;;11.51;64.17
17209;BME280;8720;48.488;9.202;2023-02-04T09:56:47;98714.28;;;11.53;64.35
17209;BME280;8720;48.488;9.202;2023-02-04T09:59:17;98722.13;;;11.56;64.11
17209;BME280;8720;48.488;9.202;2023-02-04T10:01:52;98723.88;;;11.57;64.20
17209;BME280;8720;48.488;9.202;2023-02-04T10:04:21;98722.09;;;11.59;64.16
17209;BME280;8720;48.488;9.202;2023-02-04T10:06:49;98725.59;;;11.61;64.24
17209;BME280;8720;48.488;9.202;2023-02-04T10:09:17;98715.16;;;11.56;64.36
17209;BME280;8720;48.488;9.202;2023-02-04T10:11:47;98723.91;;;11.67;63.88
17209;BME280;8720;48.488;9.202;2023-02-04T10:14:18;98724.78;;;11.69;63.91
17209;BME280;8720;48.488;9.202;2023-02-04T10:16:53;98733.50;;;11.76;64.04
17209;BME280;8720;48.488;9.202;2023-02-04T10:19:22;98722.13;;;11.78;64.06
17209;BME280;8720;48.488;9.202;2023-02-04T10:21:50;98726.50;;;11.81;64.03
17209;BME280;8720;48.488;9.202;2023-02-04T10:24:20;98722.13;;;11.83;63.91
17209;BME280;8720;48.488;9.202;2023-02-04T10:26:51;98713.41;;;11.79;63.35
17209;BME280;8720;48.488;9.202;2023-02-04T10:29:22;98721.25;;;11.76;63.31
17209;BME280;8720;48.488;9.202;2023-02-04T10:31:52;98717.75;;;11.73;63.42
17209;BME280;8720;48.488;9.202;2023-02-04T10:34:22;98717.78;;;11.70;63.14
17209;BME280;8720;48.488;9.202;2023-02-04T10:36:52;98712.53;;;11.67;63.24
17209;BME280;8720;48.488;9.202;2023-02-04T10:39:25;98711.63;;;11.65;63.37
17209;BME280;8720;48.488;9.202;2023-02-04T10:41:55;98715.16;;;11.65;63.13
17209;BME280;8720;48.488;9.202;2023-02-04T10:44:29;98712.56;;;11.68;63.17
17209;BME280;8720;48.488;9.202;2023-02-04T10:47:03;98708.16;;;11.70;63.24
17209;BME280;8720;48.488;9.202;2023-02-04T10:49:32;98702.06;;;11.68;63.10
17209;BME280;8720;48.488;9.202;2023-02-04T10:52:01;98709.03;;;11.77;63.02
17209;BME280;8720;48.488;9.202;2023-02-04T10:54:36;98704.66;;;11.76;62.67
17209;BME280;8720;48.488;9.202;2023-02-04T10:57:16;98703.81;;;11.74;62.46
17209;BME280;8720;48.488;9.202;2023-02-04T10:59:46;98701.16;;;11.71;62.09
17209;BME280;8720;48.488;9.202;2023-02-04T11:02:42;98703.75;;;11.63;62.36
17209;BME280;8720;48.488;9.202;2023-02-04T11:05:14;98699.44;;;11.55;62.38
17209;BME280;8720;48.488;9.202;2023-02-04T11:07:44;98703.78;;;11.56;62.32
17209;BME280;8720;48.488;9.202;2023-02-04T11:10:17;98693.31;;;11.54;62.26
17209;BME280;8720;48.488;9.202;2023-02-04T11:12:59;98675.84;;;11.41;62.31
17209;BME280;8720;48.488;9.202;2023-02-04T11:15:43;98697.66;;;11.49;62.55
17209;BME280;8720;48.488;9.202;2023-02-04T11:18:27;98703.78;;;11.48;62.28
17209;BME280;8720;48.488;9.202;2023-02-04T11:20:57;98691.56;;;11.49;62.66
17209;BME280;8720;48.488;9.202;2023-02-04T11:23:32;98697.66;;;11.52;62.59
17209;BME280;8720;48.488;9.202;2023-02-04T11:26:11;98695.91;;;11.59;63.03
17209;BME280;8720;48.488;9.202;2023-02-04T11:28:49;98706.44;;;11.68;63.00
17209;BME280;8720;48.488;9.202;2023-02-04T11:31:42;98700.31;;;11.72;63.12
17209;BME280;8720;48.488;9.202;2023-02-04T11:34:43;98710.75;;;11.76;62.79
17209;BME280;8720;48.488;9.202;2023-02-04T11:37:37;98707.28;;;11.77;62.73
17209;BME280;8720;48.488;9.202;2023-02-04T11:40:29;98702.91;;;11.79;62.88
17209;BME280;8720;48.488;9.202;2023-02-04T11:43:00;98702.00;;;11.82;62.45
17209;BME280;8720;48.488;9.202;2023-02-04T11:45:32;98700.25;;;11.84;62.36
17209;BME280;8720;48.488;9.202;2023-02-04T11:48:03;98695.88;;;11.86;62.10
17209;BME280;8720;48.488;9.202;2023-02-04T11:50:37;98691.53;;;11.85;62.03
17209;BME280;8720;48.488;9.202;2023-02-04T11:53:10;98681.91;;;11.84;62.31
17209;BME280;8720;48.488;9.202;2023-02-04T11:55:44;98686.28;;;11.90;62.10
17209;BME280;8720;48.488;9.202;2023-02-04T11:58:15;98683.63;;;11.96;62.13
17209;BME280;8720;48.488;9.202;2023-02-04T12:00:43;98684.47;;;12.04;62.46
17209;BME280;8720;48.488;9.202;2023-02-04T12:03:23;98681.81;;;12.16;62.42
17209;BME280;8720;48.488;9.202;2023-02-04T12:05:53;98684.41;;;12.26;62.48
17209;BME280;8720;48.488;9.202;2023-02-04T12:08:30;98680.84;;;12.39;62.24
17209;BME280;8720;48.488;9.202;2023-02-04T12:11:06;98681.69;;;12.49;62.02
17209;BME280;8720;48.488;9.202;2023-02-04T12:13:47;98690.41;;;12.57;62.03
17209;BME280;8720;48.488;9.202;2023-02-04T12:16:15;98694.72;;;12.65;61.89
17209;BME280;8720;48.488;9.202;2023-02-04T12:18:43;98688.56;;;12.72;61.52
17209;BME280;8720;48.488;9.202;2023-02-04T12:21:12;98691.13;;;12.77;60.96
17209;BME280;8720;48.488;9.202;2023-02-04T12:23:40;98699.88;;;12.80;60.63
17209;BME280;8720;48.488;9.202;2023-02-04T12:26:08;98693.75;;;12.82;61.01
17209;BME280;8720;48.488;9.202;2023-02-04T12:28:36;98690.22;;;12.86;60.53
17209;BME280;8720;48.488;9.202;2023-02-04T12:31:03;98689.31;;;12.87;60.81
17209;BME280;8720;48.488;9.202;2023-02-04T12:33:31;98697.22;;;12.87;60.48
17209;BME280;8720;48.488;9.202;2023-02-04T12:35:58;98710.34;;;12.85;59.91
17209;BME280;8720;48.488;9.202;2023-02-04T12:38:27;98699.88;;;12.79;59.66
17209;BME280;8720;48.488;9.202;2023-02-04T12:40:54;98702.56;;;12.74;59.83
17209;BME280;8720;48.488;9.202;2023-02-04T12:43:22;98704.31;;;12.69;59.78
17209;BME280;8720;48.488;9.202;2023-02-04T12:45:50;98703.50;;;12.63;59.93
17209;BME280;8720;48.488;9.202;2023-02-04T12:48:17;98700.91;;;12.54;59.83
17209;BME280;8720;48.488;9.202;2023-02-04T12:50:45;98700.06;;;12.46;59.71
17209;BME280;8720;48.488;9.202;2023-02-04T12:53:12;98705.34;;;12.38;59.46
17209;BME280;8720;48.488;9.202;2023-02-04T12:55:41;98710.66;;;12.28;59.64
17209;BME280;8720;48.488;9.202;2023-02-04T12:58:08;98707.16;;;12.20;59.86
17209;BME280;8720;48.488;9.202;2023-02-04T13:00:35;98715.03;;;12.15;60.08
17209;BME280;8720;48.488;9.202;2023-02-04T13:03:03;98720.31;;;12.14;60.22
17209;BME280;8720;48.488;9.202;2023-02-04T13:05:30;98715.09;;;12.11;60.25
17209;BME280;8720;48.488;9.202;2023-02-04T13:07:58;98701.09;;;12.06;60.42
17209;BME280;8720;48.488;9.202;2023-02-04T13:10:26;98717.69;;;12.08;60.29
17209;BME280;8720;48.488;9.202;2023-02-04T13:12:57;98716.84;;;12.04;60.11
17209;BME280;8720;48.488;9.202;2023-02-04T13:15:25;98724.72;;;12.03;60.27
17209;BME280;8720;48.488;9.202;2023-02-04T13:17:53;98708.97;;;11.98;60.25
17209;BME280;8720;48.488;9.202;2023-02-04T13:20:20;98724.72;;;11.98;60.40
17209;BME280;8720;48.488;9.202;2023-02-04T13:22:47;98722.06;;;12.00;60.56